Mapleton, Iowa
Current Conditions -  °F | °C
As of 3:35 AM on Wednesday 22 Oct 2014 (Local Time) from KDNS Reporting Station
Overcast Overcast  
Wind Chill: 52°   Ceiling: 4700
Heat Index: 52°   Visibility: 10mi
Dew Point: 45°   Wind: 10mph
Humidity: 76%   Direction: 140°SE
Pressure: 30.1"   Gusts: 16mph
Location:  42.17°N, 95.79°W
Report Text: KDNS 220835Z AUTO 14009G14KT 10SM BKN047 OVC070 11/07 A3010 RMK AO2
Loading
Personal Weather Stations






























Interactive Weather Map
Tropical Storm Tracking
New forecast layout! Learn more

10-Day Weather Forecast

Advertisements
Track Severe Weather on mobile